sensor_id;sensor_type;location;lat;lon;timestamp;P1;durP1;ratioP1;P2;durP2;ratioP2
9128;SDS011;4599;50.906;6.786;2022-09-14T00:02:50;10.93;;;9.47;;
9128;SDS011;4599;50.906;6.786;2022-09-14T00:06:51;13.07;;;10.83;;
9128;SDS011;4599;50.906;6.786;2022-09-14T00:10:54;16.30;;;12.57;;
9128;SDS011;4599;50.906;6.786;2022-09-14T00:14:57;14.67;;;12.20;;
9128;SDS011;4599;50.906;6.786;2022-09-14T00:18:59;13.13;;;11.57;;
9128;SDS011;4599;50.906;6.786;2022-09-14T00:23:00;13.10;;;11.50;;
9128;SDS011;4599;50.906;6.786;2022-09-14T00:27:03;17.50;;;14.00;;
9128;SDS011;4599;50.906;6.786;2022-09-14T00:31:04;18.87;;;14.17;;
9128;SDS011;4599;50.906;6.786;2022-09-14T00:35:06;17.03;;;12.70;;
9128;SDS011;4599;50.906;6.786;2022-09-14T00:39:08;20.13;;;13.73;;
9128;SDS011;4599;50.906;6.786;2022-09-14T00:43:13;17.70;;;10.43;;
9128;SDS011;4599;50.906;6.786;2022-09-14T00:47:15;14.17;;;11.60;;
9128;SDS011;4599;50.906;6.786;2022-09-14T00:51:17;16.53;;;13.10;;
9128;SDS011;4599;50.906;6.786;2022-09-14T00:55:19;16.67;;;12.87;;
9128;SDS011;4599;50.906;6.786;2022-09-14T00:59:24;17.57;;;11.97;;
9128;SDS011;4599;50.906;6.786;2022-09-14T01:03:26;19.13;;;14.37;;
9128;SDS011;4599;50.906;6.786;2022-09-14T01:07:31;19.03;;;14.80;;
9128;SDS011;4599;50.906;6.786;2022-09-14T01:11:39;18.10;;;14.90;;
9128;SDS011;4599;50.906;6.786;2022-09-14T01:15:48;23.10;;;16.07;;
9128;SDS011;4599;50.906;6.786;2022-09-14T01:19:57;22.30;;;15.77;;
9128;SDS011;4599;50.906;6.786;2022-09-14T01:24:02;19.33;;;15.20;;
9128;SDS011;4599;50.906;6.786;2022-09-14T01:28:08;22.27;;;16.57;;
9128;SDS011;4599;50.906;6.786;2022-09-14T01:32:11;19.63;;;14.63;;
9128;SDS011;4599;50.906;6.786;2022-09-14T01:36:14;19.03;;;14.43;;
9128;SDS011;4599;50.906;6.786;2022-09-14T01:40:16;22.33;;;15.63;;
9128;SDS011;4599;50.906;6.786;2022-09-14T01:44:20;20.87;;;14.83;;
9128;SDS011;4599;50.906;6.786;2022-09-14T01:48:23;19.53;;;14.77;;
9128;SDS011;4599;50.906;6.786;2022-09-14T01:52:28;17.43;;;14.83;;
9128;SDS011;4599;50.906;6.786;2022-09-14T01:56:32;14.70;;;12.30;;
9128;SDS011;4599;50.906;6.786;2022-09-14T02:00:35;11.90;;;10.03;;
9128;SDS011;4599;50.906;6.786;2022-09-14T02:04:39;8.43;;;7.53;;
9128;SDS011;4599;50.906;6.786;2022-09-14T02:08:41;10.07;;;6.97;;
9128;SDS011;4599;50.906;6.786;2022-09-14T02:12:42;5.93;;;5.30;;
9128;SDS011;4599;50.906;6.786;2022-09-14T02:16:45;8.77;;;6.27;;
9128;SDS011;4599;50.906;6.786;2022-09-14T02:20:55;7.63;;;5.50;;
9128;SDS011;4599;50.906;6.786;2022-09-14T02:24:58;7.07;;;5.30;;
9128;SDS011;4599;50.906;6.786;2022-09-14T02:29:00;5.60;;;5.10;;
9128;SDS011;4599;50.906;6.786;2022-09-14T02:33:04;6.00;;;4.83;;
9128;SDS011;4599;50.906;6.786;2022-09-14T02:37:09;4.80;;;4.40;;
9128;SDS011;4599;50.906;6.786;2022-09-14T02:41:14;5.67;;;5.13;;
9128;SDS011;4599;50.906;6.786;2022-09-14T02:45:19;6.87;;;5.20;;
9128;SDS011;4599;50.906;6.786;2022-09-14T02:49:24;8.10;;;5.90;;
9128;SDS011;4599;50.906;6.786;2022-09-14T02:53:29;5.93;;;5.10;;
9128;SDS011;4599;50.906;6.786;2022-09-14T03:01:51;6.67;;;5.60;;
9128;SDS011;4599;50.906;6.786;2022-09-14T03:05:55;15.33;;;7.40;;
9128;SDS011;4599;50.906;6.786;2022-09-14T03:09:57;9.23;;;6.80;;
9128;SDS011;4599;50.906;6.786;2022-09-14T03:13:58;10.87;;;6.93;;
9128;SDS011;4599;50.906;6.786;2022-09-14T03:17:59;8.53;;;7.00;;
9128;SDS011;4599;50.906;6.786;2022-09-14T03:22:02;9.30;;;7.27;;
9128;SDS011;4599;50.906;6.786;2022-09-14T03:26:06;9.50;;;6.97;;
9128;SDS011;4599;50.906;6.786;2022-09-14T03:30:08;8.90;;;7.93;;
9128;SDS011;4599;50.906;6.786;2022-09-14T03:34:10;9.10;;;8.03;;
9128;SDS011;4599;50.906;6.786;2022-09-14T03:38:12;9.57;;;8.30;;
9128;SDS011;4599;50.906;6.786;2022-09-14T03:42:14;11.40;;;9.27;;
9128;SDS011;4599;50.906;6.786;2022-09-14T03:46:16;9.73;;;8.43;;
9128;SDS011;4599;50.906;6.786;2022-09-14T03:50:17;12.03;;;9.23;;
9128;SDS011;4599;50.906;6.786;2022-09-14T03:54:20;9.77;;;8.77;;
9128;SDS011;4599;50.906;6.786;2022-09-14T03:58:22;10.80;;;9.70;;
9128;SDS011;4599;50.906;6.786;2022-09-14T04:02:23;13.10;;;10.27;;
9128;SDS011;4599;50.906;6.786;2022-09-14T04:06:24;16.37;;;11.30;;
9128;SDS011;4599;50.906;6.786;2022-09-14T04:10:27;14.53;;;12.40;;
9128;SDS011;4599;50.906;6.786;2022-09-14T04:14:28;14.53;;;12.97;;
9128;SDS011;4599;50.906;6.786;2022-09-14T04:18:30;14.23;;;12.73;;
9128;SDS011;4599;50.906;6.786;2022-09-14T04:22:32;15.47;;;12.87;;
9128;SDS011;4599;50.906;6.786;2022-09-14T04:26:34;10.83;;;9.83;;
9128;SDS011;4599;50.906;6.786;2022-09-14T04:30:36;11.93;;;10.43;;
9128;SDS011;4599;50.906;6.786;2022-09-14T04:34:37;12.43;;;10.43;;
9128;SDS011;4599;50.906;6.786;2022-09-14T04:38:39;11.53;;;10.33;;
9128;SDS011;4599;50.906;6.786;2022-09-14T04:42:42;14.47;;;10.00;;
9128;SDS011;4599;50.906;6.786;2022-09-14T04:46:43;16.97;;;10.10;;
9128;SDS011;4599;50.906;6.786;2022-09-14T04:50:47;11.43;;;10.33;;
9128;SDS011;4599;50.906;6.786;2022-09-14T04:54:48;12.07;;;9.93;;
9128;SDS011;4599;50.906;6.786;2022-09-14T04:58:51;13.13;;;10.10;;
9128;SDS011;4599;50.906;6.786;2022-09-14T05:02:53;12.73;;;9.30;;
9128;SDS011;4599;50.906;6.786;2022-09-14T05:06:54;13.40;;;8.97;;
9128;SDS011;4599;50.906;6.786;2022-09-14T05:10:56;8.23;;;7.43;;
9128;SDS011;4599;50.906;6.786;2022-09-14T05:14:58;8.10;;;7.30;;
9128;SDS011;4599;50.906;6.786;2022-09-14T05:19:00;8.80;;;8.00;;
9128;SDS011;4599;50.906;6.786;2022-09-14T05:23:02;10.17;;;8.67;;
9128;SDS011;4599;50.906;6.786;2022-09-14T05:27:03;10.17;;;8.50;;
9128;SDS011;4599;50.906;6.786;2022-09-14T05:31:07;8.70;;;8.00;;
9128;SDS011;4599;50.906;6.786;2022-09-14T05:35:08;10.47;;;9.40;;
9128;SDS011;4599;50.906;6.786;2022-09-14T05:39:10;10.57;;;8.97;;
9128;SDS011;4599;50.906;6.786;2022-09-14T05:43:11;10.37;;;9.20;;
9128;SDS011;4599;50.906;6.786;2022-09-14T05:47:14;10.03;;;9.07;;
9128;SDS011;4599;50.906;6.786;2022-09-14T05:51:16;9.60;;;8.37;;
9128;SDS011;4599;50.906;6.786;2022-09-14T05:55:18;9.70;;;8.00;;
9128;SDS011;4599;50.906;6.786;2022-09-14T05:59:19;6.97;;;6.27;;
9128;SDS011;4599;50.906;6.786;2022-09-14T06:03:22;7.27;;;6.40;;
9128;SDS011;4599;50.906;6.786;2022-09-14T06:07:23;6.53;;;5.93;;
9128;SDS011;4599;50.906;6.786;2022-09-14T06:11:25;10.80;;;6.00;;
9128;SDS011;4599;50.906;6.786;2022-09-14T06:15:26;6.53;;;5.50;;
9128;SDS011;4599;50.906;6.786;2022-09-14T06:19:29;7.20;;;5.17;;
9128;SDS011;4599;50.906;6.786;2022-09-14T06:23:31;5.43;;;4.93;;
9128;SDS011;4599;50.906;6.786;2022-09-14T06:27:32;6.60;;;5.43;;
9128;SDS011;4599;50.906;6.786;2022-09-14T06:31:34;6.67;;;5.20;;
9128;SDS011;4599;50.906;6.786;2022-09-14T06:35:36;5.87;;;5.27;;
9128;SDS011;4599;50.906;6.786;2022-09-14T06:39:37;5.30;;;4.80;;
9128;SDS011;4599;50.906;6.786;2022-09-14T06:43:39;5.10;;;4.67;;
9128;SDS011;4599;50.906;6.786;2022-09-14T06:47:41;5.20;;;4.70;;
9128;SDS011;4599;50.906;6.786;2022-09-14T06:51:44;8.53;;;4.83;;
9128;SDS011;4599;50.906;6.786;2022-09-14T06:55:45;5.90;;;5.40;;
9128;SDS011;4599;50.906;6.786;2022-09-14T06:59:47;7.77;;;6.00;;
9128;SDS011;4599;50.906;6.786;2022-09-14T07:03:48;5.70;;;5.20;;
9128;SDS011;4599;50.906;6.786;2022-09-14T07:07:51;4.83;;;4.43;;
9128;SDS011;4599;50.906;6.786;2022-09-14T07:11:52;4.67;;;3.90;;
9128;SDS011;4599;50.906;6.786;2022-09-14T07:15:53;3.70;;;3.40;;
9128;SDS011;4599;50.906;6.786;2022-09-14T07:19:55;3.87;;;3.53;;
9128;SDS011;4599;50.906;6.786;2022-09-14T07:23:57;2.90;;;2.60;;
9128;SDS011;4599;50.906;6.786;2022-09-14T07:27:58;3.50;;;2.90;;
9128;SDS011;4599;50.906;6.786;2022-09-14T07:32:00;2.97;;;2.77;;
9128;SDS011;4599;50.906;6.786;2022-09-14T07:36:05;2.73;;;2.53;;
9128;SDS011;4599;50.906;6.786;2022-09-14T07:40:08;2.90;;;2.70;;
9128;SDS011;4599;50.906;6.786;2022-09-14T07:44:12;3.40;;;3.10;;
9128;SDS011;4599;50.906;6.786;2022-09-14T07:48:13;3.80;;;3.50;;
9128;SDS011;4599;50.906;6.786;2022-09-14T07:52:15;4.20;;;3.80;;
9128;SDS011;4599;50.906;6.786;2022-09-14T07:56:17;5.60;;;5.10;;
9128;SDS011;4599;50.906;6.786;2022-09-14T08:00:19;5.87;;;5.37;;
9128;SDS011;4599;50.906;6.786;2022-09-14T08:04:20;5.27;;;4.77;;
9128;SDS011;4599;50.906;6.786;2022-09-14T08:08:21;4.50;;;4.10;;
9128;SDS011;4599;50.906;6.786;2022-09-14T08:12:24;5.00;;;4.50;;
9128;SDS011;4599;50.906;6.786;2022-09-14T08:16:26;4.53;;;4.13;;
9128;SDS011;4599;50.906;6.786;2022-09-14T08:20:28;4.93;;;4.20;;
9128;SDS011;4599;50.906;6.786;2022-09-14T08:24:29;4.23;;;3.93;;
9128;SDS011;4599;50.906;6.786;2022-09-14T08:28:32;5.37;;;4.87;;
9128;SDS011;4599;50.906;6.786;2022-09-14T08:32:34;5.83;;;4.77;;
9128;SDS011;4599;50.906;6.786;2022-09-14T08:36:36;5.83;;;5.17;;
9128;SDS011;4599;50.906;6.786;2022-09-14T08:40:41;4.80;;;4.40;;
9128;SDS011;4599;50.906;6.786;2022-09-14T08:44:46;4.73;;;4.33;;
9128;SDS011;4599;50.906;6.786;2022-09-14T08:48:49;4.97;;;4.47;;
9128;SDS011;4599;50.906;6.786;2022-09-14T08:52:51;5.27;;;4.53;;
9128;SDS011;4599;50.906;6.786;2022-09-14T08:56:54;4.93;;;4.53;;
9128;SDS011;4599;50.906;6.786;2022-09-14T09:00:58;5.57;;;4.40;;
9128;SDS011;4599;50.906;6.786;2022-09-14T09:05:06;4.60;;;4.20;;
9128;SDS011;4599;50.906;6.786;2022-09-14T09:09:16;4.70;;;4.30;;
9128;SDS011;4599;50.906;6.786;2022-09-14T09:13:20;5.63;;;4.07;;
9128;SDS011;4599;50.906;6.786;2022-09-14T09:17:26;5.63;;;4.80;;
9128;SDS011;4599;50.906;6.786;2022-09-14T09:21:32;6.07;;;4.73;;
9128;SDS011;4599;50.906;6.786;2022-09-14T09:25:39;6.00;;;4.63;;
9128;SDS011;4599;50.906;6.786;2022-09-14T09:29:42;7.37;;;4.73;;
9128;SDS011;4599;50.906;6.786;2022-09-14T09:33:45;5.23;;;4.67;;
9128;SDS011;4599;50.906;6.786;2022-09-14T09:37:47;5.30;;;4.80;;
9128;SDS011;4599;50.906;6.786;2022-09-14T09:41:50;6.63;;;5.50;;
9128;SDS011;4599;50.906;6.786;2022-09-14T09:45:56;6.37;;;5.77;;
9128;SDS011;4599;50.906;6.786;2022-09-14T09:50:01;8.13;;;6.10;;
9128;SDS011;4599;50.906;6.786;2022-09-14T09:54:04;6.50;;;5.87;;
9128;SDS011;4599;50.906;6.786;2022-09-14T09:58:20;6.80;;;6.03;;
9128;SDS011;4599;50.906;6.786;2022-09-14T10:02:25;8.97;;;6.13;;
9128;SDS011;4599;50.906;6.786;2022-09-14T10:06:28;7.97;;;6.13;;
9128;SDS011;4599;50.906;6.786;2022-09-14T10:10:38;8.13;;;6.47;;
9128;SDS011;4599;50.906;6.786;2022-09-14T10:14:40;7.10;;;6.47;;
9128;SDS011;4599;50.906;6.786;2022-09-14T10:18:42;7.07;;;6.37;;
9128;SDS011;4599;50.906;6.786;2022-09-14T10:22:50;7.10;;;6.50;;
9128;SDS011;4599;50.906;6.786;2022-09-14T10:26:52;6.27;;;5.67;;
9128;SDS011;4599;50.906;6.786;2022-09-14T10:30:54;6.10;;;5.60;;
9128;SDS011;4599;50.906;6.786;2022-09-14T10:34:57;6.33;;;5.70;;
9128;SDS011;4599;50.906;6.786;2022-09-14T10:39:02;5.37;;;4.80;;
9128;SDS011;4599;50.906;6.786;2022-09-14T10:43:10;6.87;;;4.67;;
9128;SDS011;4599;50.906;6.786;2022-09-14T10:47:17;4.40;;;4.00;;
9128;SDS011;4599;50.906;6.786;2022-09-14T10:51:32;5.40;;;4.13;;
9128;SDS011;4599;50.906;6.786;2022-09-14T10:55:40;4.10;;;3.70;;
9128;SDS011;4599;50.906;6.786;2022-09-14T10:59:46;6.77;;;2.97;;
9128;SDS011;4599;50.906;6.786;2022-09-14T11:03:52;3.60;;;3.30;;
9128;SDS011;4599;50.906;6.786;2022-09-14T11:08:01;3.43;;;3.10;;
9128;SDS011;4599;50.906;6.786;2022-09-14T11:12:07;3.50;;;3.20;;
9128;SDS011;4599;50.906;6.786;2022-09-14T11:16:14;3.43;;;3.00;;
9128;SDS011;4599;50.906;6.786;2022-09-14T11:20:21;3.93;;;3.53;;
9128;SDS011;4599;50.906;6.786;2022-09-14T11:24:24;4.40;;;4.00;;
9128;SDS011;4599;50.906;6.786;2022-09-14T11:28:32;4.03;;;3.50;;
9128;SDS011;4599;50.906;6.786;2022-09-14T11:32:35;5.13;;;3.87;;
9128;SDS011;4599;50.906;6.786;2022-09-14T11:36:38;4.60;;;4.20;;
9128;SDS011;4599;50.906;6.786;2022-09-14T11:40:42;4.70;;;4.30;;
9128;SDS011;4599;50.906;6.786;2022-09-14T11:44:53;5.93;;;4.43;;
9128;SDS011;4599;50.906;6.786;2022-09-14T11:48:59;4.47;;;4.07;;
9128;SDS011;4599;50.906;6.786;2022-09-14T11:53:08;4.87;;;4.47;;
9128;SDS011;4599;50.906;6.786;2022-09-14T11:57:12;5.13;;;4.73;;
9128;SDS011;4599;50.906;6.786;2022-09-14T12:01:26;5.63;;;4.73;;
9128;SDS011;4599;50.906;6.786;2022-09-14T12:05:29;5.87;;;5.10;;
9128;SDS011;4599;50.906;6.786;2022-09-14T12:09:38;5.50;;;5.03;;
9128;SDS011;4599;50.906;6.786;2022-09-14T12:13:40;5.80;;;5.10;;
9128;SDS011;4599;50.906;6.786;2022-09-14T12:17:42;6.20;;;5.57;;
9128;SDS011;4599;50.906;6.786;2022-09-14T12:21:44;7.67;;;5.70;;
9128;SDS011;4599;50.906;6.786;2022-09-14T12:25:59;5.80;;;5.40;;
9128;SDS011;4599;50.906;6.786;2022-09-14T12:30:46;6.83;;;4.97;;
9128;SDS011;4599;50.906;6.786;2022-09-14T12:34:24;6.07;;;5.50;;
9128;SDS011;4599;50.906;6.786;2022-09-14T12:38:39;6.00;;;5.40;;
9128;SDS011;4599;50.906;6.786;2022-09-14T12:42:40;8.37;;;6.10;;
9128;SDS011;4599;50.906;6.786;2022-09-14T12:46:41;7.13;;;6.17;;
9128;SDS011;4599;50.906;6.786;2022-09-14T12:50:44;6.10;;;5.50;;
9128;SDS011;4599;50.906;6.786;2022-09-14T12:54:54;6.47;;;5.80;;
9128;SDS011;4599;50.906;6.786;2022-09-14T12:59:01;6.30;;;5.70;;
9128;SDS011;4599;50.906;6.786;2022-09-14T13:03:07;6.27;;;5.67;;
9128;SDS011;4599;50.906;6.786;2022-09-14T13:07:13;6.60;;;6.00;;
9128;SDS011;4599;50.906;6.786;2022-09-14T13:11:25;6.77;;;6.17;;
9128;SDS011;4599;50.906;6.786;2022-09-14T13:15:30;6.73;;;6.10;;
9128;SDS011;4599;50.906;6.786;2022-09-14T13:19:32;6.50;;;5.60;;
9128;SDS011;4599;50.906;6.786;2022-09-14T13:23:37;6.87;;;5.87;;
9128;SDS011;4599;50.906;6.786;2022-09-14T13:27:38;6.33;;;5.73;;
9128;SDS011;4599;50.906;6.786;2022-09-14T13:31:39;9.00;;;5.10;;
9128;SDS011;4599;50.906;6.786;2022-09-14T13:35:44;5.67;;;5.07;;
9128;SDS011;4599;50.906;6.786;2022-09-14T13:39:49;5.00;;;4.50;;
9128;SDS011;4599;50.906;6.786;2022-09-14T13:43:51;4.57;;;4.17;;
9128;SDS011;4599;50.906;6.786;2022-09-14T13:47:53;6.50;;;4.10;;
9128;SDS011;4599;50.906;6.786;2022-09-14T13:56:20;4.40;;;4.00;;
9128;SDS011;4599;50.906;6.786;2022-09-14T14:00:22;4.93;;;3.80;;
9128;SDS011;4599;50.906;6.786;2022-09-14T14:04:28;5.73;;;4.03;;
9128;SDS011;4599;50.906;6.786;2022-09-14T14:08:31;4.93;;;3.70;;
9128;SDS011;4599;50.906;6.786;2022-09-14T14:12:35;8.93;;;3.77;;
9128;SDS011;4599;50.906;6.786;2022-09-14T14:16:37;5.57;;;3.40;;
9128;SDS011;4599;50.906;6.786;2022-09-14T14:20:38;4.10;;;3.20;;
9128;SDS011;4599;50.906;6.786;2022-09-14T14:24:40;4.23;;;3.00;;
9128;SDS011;4599;50.906;6.786;2022-09-14T14:29:07;2.63;;;2.43;;
9128;SDS011;4599;50.906;6.786;2022-09-14T14:33:09;3.00;;;2.50;;
9128;SDS011;4599;50.906;6.786;2022-09-14T14:37:11;2.83;;;2.30;;
9128;SDS011;4599;50.906;6.786;2022-09-14T14:41:13;2.43;;;2.23;;
9128;SDS011;4599;50.906;6.786;2022-09-14T14:45:16;2.53;;;2.33;;
9128;SDS011;4599;50.906;6.786;2022-09-14T14:49:18;2.60;;;2.40;;
9128;SDS011;4599;50.906;6.786;2022-09-14T14:53:20;2.60;;;2.40;;
9128;SDS011;4599;50.906;6.786;2022-09-14T14:57:21;3.40;;;2.77;;
9128;SDS011;4599;50.906;6.786;2022-09-14T15:01:24;3.30;;;3.00;;
9128;SDS011;4599;50.906;6.786;2022-09-14T15:05:25;3.50;;;3.20;;
9128;SDS011;4599;50.906;6.786;2022-09-14T15:09:27;4.13;;;3.70;;
9128;SDS011;4599;50.906;6.786;2022-09-14T15:13:28;4.70;;;4.30;;
9128;SDS011;4599;50.906;6.786;2022-09-14T15:17:31;6.57;;;5.10;;
9128;SDS011;4599;50.906;6.786;2022-09-14T15:21:32;5.03;;;4.63;;
9128;SDS011;4599;50.906;6.786;2022-09-14T15:25:33;5.23;;;4.70;;
9128;SDS011;4599;50.906;6.786;2022-09-14T15:29:35;5.70;;;4.93;;
9128;SDS011;4599;50.906;6.786;2022-09-14T15:33:38;6.47;;;5.97;;
9128;SDS011;4599;50.906;6.786;2022-09-14T15:37:39;5.43;;;4.93;;
9128;SDS011;4599;50.906;6.786;2022-09-14T15:41:40;6.03;;;5.53;;
9128;SDS011;4599;50.906;6.786;2022-09-14T15:45:42;7.93;;;6.17;;
9128;SDS011;4599;50.906;6.786;2022-09-14T15:49:45;7.10;;;6.50;;
9128;SDS011;4599;50.906;6.786;2022-09-14T15:53:48;6.80;;;6.20;;
9128;SDS011;4599;50.906;6.786;2022-09-14T15:57:50;7.00;;;6.30;;
9128;SDS011;4599;50.906;6.786;2022-09-14T16:01:51;6.63;;;5.90;;
9128;SDS011;4599;50.906;6.786;2022-09-14T16:05:54;6.47;;;5.87;;
9128;SDS011;4599;50.906;6.786;2022-09-14T16:09:55;7.20;;;6.50;;
9128;SDS011;4599;50.906;6.786;2022-09-14T16:13:59;7.47;;;6.87;;
9128;SDS011;4599;50.906;6.786;2022-09-14T16:18:00;6.87;;;6.23;;
9128;SDS011;4599;50.906;6.786;2022-09-14T16:22:03;7.03;;;6.43;;
9128;SDS011;4599;50.906;6.786;2022-09-14T16:26:05;7.90;;;7.07;;
9128;SDS011;4599;50.906;6.786;2022-09-14T16:30:07;8.57;;;7.70;;
9128;SDS011;4599;50.906;6.786;2022-09-14T16:34:09;10.43;;;7.87;;
9128;SDS011;4599;50.906;6.786;2022-09-14T16:38:12;10.00;;;8.97;;
9128;SDS011;4599;50.906;6.786;2022-09-14T16:42:13;10.33;;;9.40;;
9128;SDS011;4599;50.906;6.786;2022-09-14T16:46:15;10.97;;;9.97;;
9128;SDS011;4599;50.906;6.786;2022-09-14T16:50:17;15.30;;;11.90;;
9128;SDS011;4599;50.906;6.786;2022-09-14T16:54:20;11.90;;;10.83;;
9128;SDS011;4599;50.906;6.786;2022-09-14T16:58:22;11.93;;;10.73;;
9128;SDS011;4599;50.906;6.786;2022-09-14T17:02:23;12.83;;;10.83;;
9128;SDS011;4599;50.906;6.786;2022-09-14T17:06:27;12.90;;;11.60;;
9128;SDS011;4599;50.906;6.786;2022-09-14T17:10:33;14.10;;;11.23;;
9128;SDS011;4599;50.906;6.786;2022-09-14T17:14:34;10.43;;;9.43;;
9128;SDS011;4599;50.906;6.786;2022-09-14T17:18:36;9.20;;;8.27;;
9128;SDS011;4599;50.906;6.786;2022-09-14T17:22:38;9.23;;;8.27;;
9128;SDS011;4599;50.906;6.786;2022-09-14T17:26:40;8.50;;;7.13;;
9128;SDS011;4599;50.906;6.786;2022-09-14T17:30:42;10.87;;;7.73;;
9128;SDS011;4599;50.906;6.786;2022-09-14T17:34:43;9.57;;;7.47;;
9128;SDS011;4599;50.906;6.786;2022-09-14T17:38:45;7.97;;;7.17;;
9128;SDS011;4599;50.906;6.786;2022-09-14T17:42:47;10.50;;;7.43;;
9128;SDS011;4599;50.906;6.786;2022-09-14T17:46:49;11.40;;;8.03;;
9128;SDS011;4599;50.906;6.786;2022-09-14T17:50:53;9.10;;;7.63;;
9128;SDS011;4599;50.906;6.786;2022-09-14T17:54:55;8.00;;;7.30;;
9128;SDS011;4599;50.906;6.786;2022-09-14T17:58:59;8.33;;;7.03;;
9128;SDS011;4599;50.906;6.786;2022-09-14T18:03:00;9.63;;;7.50;;
9128;SDS011;4599;50.906;6.786;2022-09-14T18:07:02;10.33;;;7.57;;
9128;SDS011;4599;50.906;6.786;2022-09-14T18:11:04;10.80;;;7.77;;
9128;SDS011;4599;50.906;6.786;2022-09-14T18:15:08;8.53;;;7.07;;
9128;SDS011;4599;50.906;6.786;2022-09-14T18:19:09;8.10;;;6.77;;
9128;SDS011;4599;50.906;6.786;2022-09-14T18:23:11;6.47;;;5.87;;
9128;SDS011;4599;50.906;6.786;2022-09-14T18:27:12;8.30;;;6.03;;
9128;SDS011;4599;50.906;6.786;2022-09-14T18:31:16;6.13;;;4.60;;
9128;SDS011;4599;50.906;6.786;2022-09-14T18:35:18;6.90;;;4.53;;
9128;SDS011;4599;50.906;6.786;2022-09-14T18:39:20;9.57;;;4.57;;
9128;SDS011;4599;50.906;6.786;2022-09-14T18:43:21;7.70;;;4.60;;
9128;SDS011;4599;50.906;6.786;2022-09-14T18:47:24;7.57;;;5.30;;
9128;SDS011;4599;50.906;6.786;2022-09-14T18:51:25;6.17;;;5.13;;
9128;SDS011;4599;50.906;6.786;2022-09-14T18:55:27;9.23;;;5.67;;
9128;SDS011;4599;50.906;6.786;2022-09-14T18:59:29;9.30;;;5.40;;
9128;SDS011;4599;50.906;6.786;2022-09-14T19:03:31;9.53;;;6.03;;
9128;SDS011;4599;50.906;6.786;2022-09-14T19:07:33;10.10;;;5.83;;
9128;SDS011;4599;50.906;6.786;2022-09-14T19:11:35;7.80;;;6.30;;
9128;SDS011;4599;50.906;6.786;2022-09-14T19:15:37;8.33;;;5.90;;
9128;SDS011;4599;50.906;6.786;2022-09-14T19:19:39;7.87;;;6.03;;
9128;SDS011;4599;50.906;6.786;2022-09-14T19:23:41;12.43;;;6.80;;
9128;SDS011;4599;50.906;6.786;2022-09-14T19:27:42;8.40;;;6.77;;
9128;SDS011;4599;50.906;6.786;2022-09-14T19:31:43;9.10;;;6.80;;
9128;SDS011;4599;50.906;6.786;2022-09-14T19:35:46;9.83;;;7.40;;
9128;SDS011;4599;50.906;6.786;2022-09-14T19:39:47;12.37;;;8.47;;
9128;SDS011;4599;50.906;6.786;2022-09-14T19:43:49;10.93;;;8.07;;
9128;SDS011;4599;50.906;6.786;2022-09-14T19:47:51;14.33;;;9.27;;
9128;SDS011;4599;50.906;6.786;2022-09-14T19:51:53;16.60;;;9.50;;
9128;SDS011;4599;50.906;6.786;2022-09-14T19:55:55;14.00;;;10.37;;
9128;SDS011;4599;50.906;6.786;2022-09-14T19:59:56;15.40;;;10.60;;
9128;SDS011;4599;50.906;6.786;2022-09-14T20:03:57;15.43;;;11.17;;
9128;SDS011;4599;50.906;6.786;2022-09-14T20:08:00;16.70;;;11.10;;
9128;SDS011;4599;50.906;6.786;2022-09-14T20:12:02;17.03;;;11.90;;
9128;SDS011;4599;50.906;6.786;2022-09-14T20:16:07;14.77;;;11.73;;
9128;SDS011;4599;50.906;6.786;2022-09-14T20:20:09;17.33;;;13.40;;
9128;SDS011;4599;50.906;6.786;2022-09-14T20:24:12;21.30;;;13.37;;
9128;SDS011;4599;50.906;6.786;2022-09-14T20:28:17;15.97;;;13.10;;
9128;SDS011;4599;50.906;6.786;2022-09-14T20:32:18;18.93;;;13.10;;
9128;SDS011;4599;50.906;6.786;2022-09-14T20:36:21;19.67;;;14.03;;
9128;SDS011;4599;50.906;6.786;2022-09-14T20:40:24;22.93;;;14.83;;
9128;SDS011;4599;50.906;6.786;2022-09-14T20:44:25;23.13;;;14.67;;
9128;SDS011;4599;50.906;6.786;2022-09-14T20:48:26;25.50;;;16.47;;
9128;SDS011;4599;50.906;6.786;2022-09-14T20:52:30;20.77;;;15.57;;
9128;SDS011;4599;50.906;6.786;2022-09-14T20:56:33;21.10;;;15.97;;
9128;SDS011;4599;50.906;6.786;2022-09-14T21:00:35;24.13;;;16.47;;
9128;SDS011;4599;50.906;6.786;2022-09-14T21:04:36;23.00;;;15.77;;
9128;SDS011;4599;50.906;6.786;2022-09-14T21:08:38;23.47;;;17.50;;
9128;SDS011;4599;50.906;6.786;2022-09-14T21:12:40;24.53;;;17.67;;
9128;SDS011;4599;50.906;6.786;2022-09-14T21:16:42;22.70;;;17.13;;
9128;SDS011;4599;50.906;6.786;2022-09-14T21:20:44;25.40;;;16.93;;
9128;SDS011;4599;50.906;6.786;2022-09-14T21:24:45;30.97;;;18.90;;
9128;SDS011;4599;50.906;6.786;2022-09-14T21:28:48;29.40;;;19.87;;
9128;SDS011;4599;50.906;6.786;2022-09-14T21:32:54;28.37;;;19.63;;
9128;SDS011;4599;50.906;6.786;2022-09-14T21:36:55;23.10;;;17.53;;
9128;SDS011;4599;50.906;6.786;2022-09-14T21:40:56;30.23;;;19.03;;
9128;SDS011;4599;50.906;6.786;2022-09-14T21:44:59;28.37;;;20.37;;
9128;SDS011;4599;50.906;6.786;2022-09-14T21:49:01;29.00;;;19.27;;
9128;SDS011;4599;50.906;6.786;2022-09-14T21:53:02;26.67;;;19.77;;
9128;SDS011;4599;50.906;6.786;2022-09-14T21:57:03;30.37;;;19.17;;
9128;SDS011;4599;50.906;6.786;2022-09-14T22:01:06;30.47;;;19.73;;
9128;SDS011;4599;50.906;6.786;2022-09-14T22:05:08;28.30;;;19.37;;
9128;SDS011;4599;50.906;6.786;2022-09-14T22:09:09;27.83;;;19.33;;
9128;SDS011;4599;50.906;6.786;2022-09-14T22:13:11;32.57;;;20.00;;
9128;SDS011;4599;50.906;6.786;2022-09-14T22:17:14;29.80;;;19.97;;
9128;SDS011;4599;50.906;6.786;2022-09-14T22:21:16;32.27;;;20.90;;
9128;SDS011;4599;50.906;6.786;2022-09-14T22:25:17;38.30;;;21.13;;
9128;SDS011;4599;50.906;6.786;2022-09-14T22:29:19;29.20;;;21.03;;
9128;SDS011;4599;50.906;6.786;2022-09-14T22:33:22;29.60;;;20.37;;
9128;SDS011;4599;50.906;6.786;2022-09-14T22:37:23;29.10;;;21.07;;
9128;SDS011;4599;50.906;6.786;2022-09-14T22:41:25;32.23;;;21.23;;
9128;SDS011;4599;50.906;6.786;2022-09-14T22:45:26;28.37;;;19.73;;
9128;SDS011;4599;50.906;6.786;2022-09-14T22:49:29;32.13;;;20.30;;
9128;SDS011;4599;50.906;6.786;2022-09-14T22:53:31;29.23;;;20.00;;
9128;SDS011;4599;50.906;6.786;2022-09-14T22:57:32;29.10;;;20.13;;
9128;SDS011;4599;50.906;6.786;2022-09-14T23:01:35;28.90;;;21.10;;
9128;SDS011;4599;50.906;6.786;2022-09-14T23:05:39;31.80;;;20.67;;
9128;SDS011;4599;50.906;6.786;2022-09-14T23:09:40;29.97;;;19.80;;
9128;SDS011;4599;50.906;6.786;2022-09-14T23:13:42;26.63;;;19.20;;
9128;SDS011;4599;50.906;6.786;2022-09-14T23:17:43;28.80;;;21.97;;
9128;SDS011;4599;50.906;6.786;2022-09-14T23:21:52;33.73;;;22.07;;
9128;SDS011;4599;50.906;6.786;2022-09-14T23:25:54;32.17;;;23.10;;
9128;SDS011;4599;50.906;6.786;2022-09-14T23:29:55;34.20;;;21.73;;
9128;SDS011;4599;50.906;6.786;2022-09-14T23:33:57;25.23;;;19.93;;
9128;SDS011;4599;50.906;6.786;2022-09-14T23:38:00;27.90;;;20.53;;
9128;SDS011;4599;50.906;6.786;2022-09-14T23:42:01;28.37;;;19.80;;
9128;SDS011;4599;50.906;6.786;2022-09-14T23:46:03;28.23;;;18.83;;
9128;SDS011;4599;50.906;6.786;2022-09-14T23:50:05;24.63;;;18.40;;
9128;SDS011;4599;50.906;6.786;2022-09-14T23:54:08;21.77;;;17.20;;
9128;SDS011;4599;50.906;6.786;2022-09-14T23:58:09;21.63;;;17.10;;
